Time;durP1;ratioP1;P1;durP2;ratioP2;P2;SDS_P1;SDS_P2;PMS_P1;PMS_P2;Temp;Humidity;BMP_temperature;BMP_pressure;BME280_temperature;BME280_humidity;BME280_pressure;Samples;Min_cycle;Max_cycle;Signal;HPM_P1;HPM_P2
2023/09/27 00:00:10;;;;;;;5.32;3.20;;;19.80;99.90;;;;;;4995425;28;20157;-67
2023/09/27 00:02:40;;;;;;;6.10;3.33;;;19.80;99.90;;;;;;4994561;28;20180;-67
2023/09/27 00:05:07;;;;;;;4.68;3.38;;;19.70;99.90;;;;;;4994652;28;20042;-67
2023/09/27 00:07:37;;;;;;;6.28;3.40;;;19.70;99.90;;;;;;4994585;28;20030;-68
2023/09/27 00:10:07;;;;;;;5.13;3.70;;;19.70;99.90;;;;;;4995108;28;20057;-67
2023/09/27 00:12:33;;;;;;;4.45;3.50;;;19.70;99.90;;;;;;5003386;28;20128;-67
2023/09/27 00:15:01;;;;;;;3.97;3.22;;;19.70;99.90;;;;;;5014575;28;20033;-68
2023/09/27 00:17:28;;;;;;;6.68;3.20;;;19.70;99.90;;;;;;5014469;28;20476;-67
2023/09/27 00:19:54;;;;;;;4.82;3.75;;;19.60;99.90;;;;;;5012340;28;20025;-72
2023/09/27 00:22:20;;;;;;;7.30;3.58;;;19.60;99.90;;;;;;4994480;28;20022;-68
2023/09/27 00:24:46;;;;;;;4.95;3.78;;;19.60;99.90;;;;;;4995033;28;20057;-67
2023/09/27 00:27:12;;;;;;;5.00;3.30;;;19.60;99.90;;;;;;4994447;28;20015;-67
2023/09/27 00:29:37;;;;;;;4.75;3.25;;;19.50;99.90;;;;;;4993345;28;20092;-67
2023/09/27 00:32:04;;;;;;;5.75;3.53;;;19.60;99.90;;;;;;5005581;28;20022;-67
2023/09/27 00:34:29;;;;;;;5.45;3.83;;;19.60;99.90;;;;;;4994880;28;20360;-67
2023/09/27 00:36:55;;;;;;;8.55;3.67;;;19.50;99.90;;;;;;4993990;28;20538;-68
2023/09/27 00:39:20;;;;;;;7.13;3.95;;;19.50;99.90;;;;;;4994434;28;20518;-67
2023/09/27 00:41:46;;;;;;;7.30;4.03;;;19.50;99.90;;;;;;4993889;28;20070;-67
2023/09/27 00:44:12;;;;;;;8.13;3.70;;;19.50;99.90;;;;;;4994396;28;20034;-67
2023/09/27 00:46:38;;;;;;;6.03;3.85;;;19.50;99.90;;;;;;4994590;28;20026;-67
2023/09/27 00:49:05;;;;;;;6.78;4.60;;;19.40;99.90;;;;;;4994167;28;20030;-67
2023/09/27 00:51:31;;;;;;;8.70;3.80;;;19.40;99.90;;;;;;4994151;28;20126;-67
2023/09/27 00:53:58;;;;;;;7.00;4.15;;;19.40;99.90;;;;;;4994003;28;20046;-67
2023/09/27 00:56:25;;;;;;;9.07;3.65;;;19.40;99.90;;;;;;4994261;28;20527;-67
2023/09/27 00:58:52;;;;;;;8.25;3.88;;;19.40;99.90;;;;;;4994121;28;20050;-67
2023/09/27 01:01:18;;;;;;;6.47;3.70;;;19.40;99.90;;;;;;4994177;28;20023;-67
2023/09/27 01:03:44;;;;;;;6.07;4.10;;;19.40;99.90;;;;;;4993341;28;20033;-67
2023/09/27 01:06:11;;;;;;;4.93;3.95;;;19.40;99.90;;;;;;4992909;28;20383;-67
2023/09/27 01:08:37;;;;;;;4.18;3.75;;;19.30;99.90;;;;;;4994077;28;20026;-67
2023/09/27 01:11:05;;;;;;;6.82;4.57;;;19.30;99.90;;;;;;4994107;28;20081;-67
2023/09/27 01:13:31;;;;;;;5.90;4.10;;;19.30;99.90;;;;;;5002031;28;20487;-67
2023/09/27 01:15:57;;;;;;;4.45;3.72;;;19.30;99.90;;;;;;4994251;28;20022;-68
2023/09/27 01:18:25;;;;;;;8.55;4.38;;;19.30;99.90;;;;;;4993056;28;20081;-67
2023/09/27 01:20:51;;;;;;;5.45;3.97;;;19.30;99.90;;;;;;4993788;28;20088;-67
2023/09/27 01:23:17;;;;;;;5.57;3.75;;;19.20;99.90;;;;;;5003136;28;20025;-67
2023/09/27 01:25:42;;;;;;;6.00;3.70;;;19.10;99.90;;;;;;5013604;28;20060;-72
2023/09/27 01:28:10;;;;;;;5.40;3.90;;;19.20;99.90;;;;;;5013397;28;20426;-67
2023/09/27 01:30:37;;;;;;;5.35;3.58;;;19.10;99.90;;;;;;5013340;28;20025;-67
2023/09/27 01:33:06;;;;;;;8.85;3.92;;;19.10;99.90;;;;;;5004993;28;20034;-68
2023/09/27 01:35:37;;;;;;;5.28;3.63;;;19.20;99.90;;;;;;4993626;28;20030;-67
2023/09/27 01:38:03;;;;;;;5.20;3.83;;;19.10;99.90;;;;;;4993700;28;20457;-67
2023/09/27 01:40:30;;;;;;;5.15;4.05;;;19.10;99.90;;;;;;4993679;28;20384;-67
2023/09/27 01:43:01;;;;;;;4.53;3.92;;;19.10;99.90;;;;;;4993225;28;20030;-67
2023/09/27 01:45:29;;;;;;;7.80;4.00;;;19.10;99.90;;;;;;4993643;28;20022;-67
2023/09/27 01:47:55;;;;;;;6.45;3.80;;;19.10;99.90;;;;;;4993828;28;20026;-68
2023/09/27 01:50:23;;;;;;;7.03;4.07;;;19.10;99.90;;;;;;4993305;28;20054;-68
2023/09/27 01:52:53;;;;;;;7.13;4.53;;;19.10;99.90;;;;;;4993089;28;20038;-67
2023/09/27 01:55:18;;;;;;;5.00;4.10;;;19.00;99.90;;;;;;4992293;28;20484;-68
2023/09/27 01:57:45;;;;;;;5.65;3.65;;;19.00;99.90;;;;;;4993597;28;20030;-71
2023/09/27 02:00:14;;;;;;;9.48;4.25;;;18.90;99.90;;;;;;4993369;28;20014;-67
2023/09/27 02:02:41;;;;;;;6.28;4.22;;;19.00;99.90;;;;;;4993538;28;20026;-69
2023/09/27 02:05:07;;;;;;;6.28;4.53;;;19.00;99.90;;;;;;4999857;28;20391;-67
2023/09/27 02:07:33;;;;;;;7.88;4.05;;;18.90;99.90;;;;;;4993505;28;20026;-67
2023/09/27 02:09:59;;;;;;;5.43;4.60;;;18.90;99.90;;;;;;4993526;28;20461;-67
2023/09/27 02:12:24;;;;;;;6.47;4.40;;;18.90;99.90;;;;;;4993372;28;20041;-68
2023/09/27 02:14:50;;;;;;;5.53;3.97;;;18.90;99.90;;;;;;5009906;28;20026;-68
2023/09/27 02:17:15;;;;;;;8.55;4.38;;;18.80;99.90;;;;;;5012656;28;20049;-67
2023/09/27 02:19:41;;;;;;;5.63;4.40;;;18.80;99.90;;;;;;5012976;28;20391;-68
2023/09/27 02:22:08;;;;;;;6.55;4.07;;;18.80;99.90;;;;;;5012130;28;20030;-67
2023/09/27 02:24:34;;;;;;;5.10;4.40;;;18.80;99.90;;;;;;5012880;28;20022;-67
2023/09/27 02:27:00;;;;;;;7.93;4.43;;;18.80;99.90;;;;;;5012779;28;20029;-68
2023/09/27 02:29:26;;;;;;;8.63;4.93;;;18.70;99.90;;;;;;5015288;28;20053;-68
2023/09/27 02:31:52;;;;;;;5.90;4.50;;;18.70;99.90;;;;;;5014537;28;20368;-67
2023/09/27 02:34:18;;;;;;;8.45;4.78;;;18.80;99.90;;;;;;5009416;28;20502;-67
2023/09/27 02:36:45;;;;;;;8.63;5.00;;;18.70;99.90;;;;;;4997770;28;20033;-69
2023/09/27 02:39:11;;;;;;;8.88;4.78;;;18.70;99.90;;;;;;4996594;28;20487;-67
2023/09/27 02:41:37;;;;;;;6.90;4.82;;;18.70;99.90;;;;;;4995894;28;20022;-67
2023/09/27 02:44:03;;;;;;;5.30;4.43;;;18.70;99.90;;;;;;4993406;28;20900;-67
2023/09/27 02:46:29;;;;;;;8.95;4.57;;;18.60;99.90;;;;;;4999270;28;20156;-67
2023/09/27 02:48:54;;;;;;;7.03;4.35;;;18.60;99.90;;;;;;5000907;28;20101;-67
2023/09/27 02:51:21;;;;;;;5.50;4.80;;;18.60;99.90;;;;;;4996667;28;20029;-72
2023/09/27 02:53:46;;;;;;;7.25;5.05;;;18.60;99.90;;;;;;4999969;28;20482;-68
2023/09/27 02:56:12;;;;;;;8.20;4.78;;;18.60;99.90;;;;;;5015773;28;20022;-67
2023/09/27 02:58:38;;;;;;;6.72;4.50;;;18.60;99.90;;;;;;4998172;28;20085;-66
2023/09/27 03:01:07;;;;;;;6.00;5.15;;;18.60;99.90;;;;;;4995163;28;20034;-68
2023/09/27 03:03:34;;;;;;;8.90;4.57;;;18.60;99.90;;;;;;4996371;28;20030;-68
2023/09/27 03:05:59;;;;;;;6.28;4.93;;;18.60;99.90;;;;;;4995888;28;20026;-68
2023/09/27 03:08:25;;;;;;;8.25;4.47;;;18.50;99.90;;;;;;5001949;28;20055;-67
2023/09/27 03:10:51;;;;;;;7.60;4.82;;;18.50;99.90;;;;;;4996172;28;20025;-67
2023/09/27 03:13:18;;;;;;;5.90;4.72;;;18.50;99.90;;;;;;4996349;28;20046;-67
2023/09/27 03:15:44;;;;;;;5.63;4.10;;;18.50;99.90;;;;;;4996020;28;20096;-67
2023/09/27 03:18:09;;;;;;;8.60;4.45;;;18.50;99.90;;;;;;5005973;28;20475;-67
2023/09/27 03:20:36;;;;;;;7.53;5.50;;;18.50;99.90;;;;;;5015579;28;20032;-67
2023/09/27 03:23:02;;;;;;;5.25;4.55;;;18.50;99.90;;;;;;5015619;28;20053;-67
2023/09/27 03:25:28;;;;;;;7.13;4.85;;;18.50;99.90;;;;;;5013500;28;20030;-67
2023/09/27 03:27:54;;;;;;;5.93;5.32;;;18.40;99.90;;;;;;5015348;28;20029;-67
2023/09/27 03:30:20;;;;;;;6.07;4.65;;;18.50;99.90;;;;;;5015092;28;20026;-67
2023/09/27 03:32:45;;;;;;;6.10;4.53;;;18.50;99.90;;;;;;5015291;28;20071;-67
2023/09/27 03:35:11;;;;;;;12.35;4.90;;;18.50;99.90;;;;;;5015319;28;20057;-66
2023/09/27 03:37:37;;;;;;;6.43;5.57;;;18.40;99.90;;;;;;5013173;28;20479;-67
2023/09/27 03:40:04;;;;;;;10.82;4.95;;;18.50;99.90;;;;;;5014499;28;20022;-67
2023/09/27 03:42:29;;;;;;;10.05;5.70;;;18.50;99.90;;;;;;5015185;28;20113;-67
2023/09/27 03:44:55;;;;;;;8.63;5.88;;;18.40;99.90;;;;;;5015015;28;20106;-67
2023/09/27 03:47:21;;;;;;;8.50;5.72;;;18.40;99.90;;;;;;4998834;28;20045;-67
2023/09/27 03:49:46;;;;;;;11.70;5.30;;;18.40;99.90;;;;;;4995592;28;20023;-67
2023/09/27 03:52:13;;;;;;;8.30;5.93;;;18.40;99.90;;;;;;4995295;28;20034;-68
2023/09/27 03:54:39;;;;;;;7.43;5.55;;;18.40;99.90;;;;;;4995383;28;20122;-68
2023/09/27 03:57:05;;;;;;;9.05;5.30;;;18.40;99.90;;;;;;5004460;28;20094;-67
2023/09/27 03:59:30;;;;;;;6.13;5.13;;;18.40;99.90;;;;;;5014656;28;20030;-67
2023/09/27 04:01:56;;;;;;;6.25;5.65;;;18.40;99.90;;;;;;5014791;28;20064;-67
2023/09/27 04:04:21;;;;;;;7.82;5.78;;;18.30;99.90;;;;;;5014665;28;20101;-71
2023/09/27 04:06:49;;;;;;;5.63;5.10;;;18.30;99.90;;;;;;5006222;28;20030;-67
2023/09/27 04:09:14;;;;;;;6.88;5.35;;;18.30;99.90;;;;;;4995055;28;20022;-67
2023/09/27 04:11:40;;;;;;;6.65;5.53;;;18.30;99.90;;;;;;4995037;28;20035;-70
2023/09/27 04:14:05;;;;;;;6.80;5.93;;;18.30;99.90;;;;;;4994678;28;20065;-67
2023/09/27 04:16:32;;;;;;;6.50;5.20;;;18.30;99.90;;;;;;4997573;28;20036;-67
2023/09/27 04:18:58;;;;;;;6.35;5.40;;;18.30;99.90;;;;;;5014483;28;20033;-67
2023/09/27 04:21:25;;;;;;;6.85;5.90;;;18.30;99.90;;;;;;5014552;28;20018;-69
2023/09/27 04:23:57;;;;;;;6.53;5.97;;;18.30;99.90;;;;;;5014335;28;20421;-67
2023/09/27 04:26:23;;;;;;;6.63;5.57;;;18.30;99.90;;;;;;5011954;28;20026;-66
2023/09/27 04:28:50;;;;;;;6.63;5.72;;;18.30;99.90;;;;;;5013723;28;20097;-70
2023/09/27 04:31:16;;;;;;;8.98;6.28;;;18.30;99.90;;;;;;5009909;28;20022;-66
2023/09/27 04:33:44;;;;;;;7.25;5.18;;;18.30;99.90;;;;;;5000233;28;20507;-67
2023/09/27 04:36:15;;;;;;;6.63;5.22;;;18.40;99.90;;;;;;5010914;28;20064;-67
2023/09/27 04:38:45;;;;;;;6.28;4.90;;;18.50;99.90;;;;;;5013972;28;20022;-67
2023/09/27 04:41:15;;;;;;;5.55;4.75;;;18.60;99.90;;;;;;5007098;28;20076;-67
2023/09/27 04:43:42;;;;;;;9.05;5.10;;;18.60;99.90;;;;;;5006094;28;20108;-68
2023/09/27 04:46:10;;;;;;;7.35;5.82;;;18.60;99.90;;;;;;5011572;28;20100;-67
2023/09/27 04:48:35;;;;;;;8.85;6.30;;;18.60;99.90;;;;;;5011260;28;20022;-67
2023/09/27 04:51:02;;;;;;;7.20;6.50;;;18.60;99.90;;;;;;5011586;28;20028;-67
2023/09/27 04:53:30;;;;;;;7.82;6.57;;;18.50;99.90;;;;;;5013564;28;20041;-68
2023/09/27 04:55:56;;;;;;;6.75;6.13;;;18.50;99.90;;;;;;5013807;28;20026;-67
2023/09/27 04:58:22;;;;;;;7.13;6.43;;;18.50;99.90;;;;;;5010243;28;20443;-72
2023/09/27 05:00:47;;;;;;;10.55;6.43;;;18.50;99.90;;;;;;5006255;28;20076;-67
2023/09/27 05:03:13;;;;;;;8.40;6.78;;;18.50;99.90;;;;;;5003957;28;20026;-66
2023/09/27 05:05:38;;;;;;;7.68;6.03;;;18.50;99.90;;;;;;5004525;28;20039;-67
2023/09/27 05:08:04;;;;;;;8.18;7.05;;;18.50;99.90;;;;;;4996269;28;20045;-67
2023/09/27 05:10:30;;;;;;;7.57;6.80;;;18.40;99.90;;;;;;5006623;28;20030;-68
2023/09/27 05:12:55;;;;;;;9.40;6.75;;;18.40;99.90;;;;;;4997511;28;20039;-67
2023/09/27 05:15:21;;;;;;;9.98;6.85;;;18.40;99.90;;;;;;5005320;28;20074;-69
2023/09/27 05:17:46;;;;;;;8.57;7.53;;;18.40;99.90;;;;;;5007010;28;20535;-64
2023/09/27 05:20:13;;;;;;;11.30;7.30;;;18.40;99.90;;;;;;5000781;28;20535;-68
2023/09/27 05:22:39;;;;;;;14.07;7.47;;;18.40;99.90;;;;;;4999582;28;20030;-68
2023/09/27 05:25:07;;;;;;;13.25;7.18;;;18.40;99.90;;;;;;5010435;28;20049;-67
2023/09/27 05:27:34;;;;;;;10.90;7.68;;;18.40;99.90;;;;;;4999323;28;20399;-66
2023/09/27 05:30:00;;;;;;;8.75;7.72;;;18.30;99.90;;;;;;4999206;28;20030;-67
2023/09/27 05:32:27;;;;;;;8.48;7.63;;;18.30;99.90;;;;;;5008505;28;20030;-68
2023/09/27 05:34:53;;;;;;;12.63;7.90;;;18.30;99.90;;;;;;5013073;28;20080;-69
2023/09/27 05:37:18;;;;;;;10.10;8.30;;;18.30;99.90;;;;;;5013525;28;20112;-68
2023/09/27 05:39:44;;;;;;;15.18;8.10;;;18.30;99.90;;;;;;5013373;28;20026;-68
2023/09/27 05:42:10;;;;;;;14.75;8.63;;;18.30;99.90;;;;;;5013084;28;20444;-68
2023/09/27 05:44:35;;;;;;;8.70;7.68;;;18.30;99.90;;;;;;5008225;28;20428;-68
2023/09/27 05:47:01;;;;;;;12.07;7.22;;;18.30;99.90;;;;;;5006073;28;20026;-68
2023/09/27 05:49:26;;;;;;;11.82;8.50;;;18.20;99.90;;;;;;5009636;28;20036;-72
2023/09/27 05:51:52;;;;;;;10.95;7.90;;;18.20;99.90;;;;;;5012260;28;20026;-67
2023/09/27 05:54:21;;;;;;;11.77;7.97;;;18.30;99.90;;;;;;5013095;28;20061;-67
2023/09/27 05:56:52;;;;;;;11.52;8.43;;;18.30;99.90;;;;;;5012851;28;20026;-67
2023/09/27 05:59:19;;;;;;;12.93;8.57;;;18.20;99.90;;;;;;5012711;28;20026;-69
2023/09/27 06:01:44;;;;;;;10.63;7.82;;;18.20;99.90;;;;;;4996530;28;20023;-68
2023/09/27 06:04:10;;;;;;;9.88;8.45;;;18.20;99.90;;;;;;4996504;28;20030;-71
2023/09/27 06:06:37;;;;;;;11.82;8.13;;;18.20;99.90;;;;;;5008093;28;20054;-69
2023/09/27 06:09:09;;;;;;;17.17;9.52;;;18.20;99.90;;;;;;5009925;28;20021;-69
2023/09/27 06:11:34;;;;;;;13.15;8.10;;;18.20;99.90;;;;;;5006130;28;20428;-67
2023/09/27 06:14:00;;;;;;;14.65;9.10;;;18.10;99.90;;;;;;4996462;28;20092;-68
2023/09/27 06:16:26;;;;;;;12.23;9.75;;;18.20;99.90;;;;;;4997138;28;20460;-68
2023/09/27 06:18:51;;;;;;;11.85;8.98;;;18.10;99.90;;;;;;4997145;28;20026;-69
2023/09/27 06:21:17;;;;;;;11.98;9.13;;;18.00;99.90;;;;;;4995903;28;20468;-68
2023/09/27 06:23:42;;;;;;;17.27;8.65;;;18.10;99.90;;;;;;4996227;28;20030;-68
2023/09/27 06:26:09;;;;;;;14.25;8.50;;;18.10;99.90;;;;;;4996943;28;20396;-69
2023/09/27 06:28:38;;;;;;;15.63;8.75;;;18.10;99.90;;;;;;4997091;28;20475;-68
2023/09/27 06:31:07;;;;;;;12.57;8.93;;;18.10;99.90;;;;;;4996663;28;20023;-68
2023/09/27 06:33:38;;;;;;;12.68;8.75;;;18.20;99.90;;;;;;4996847;28;20034;-68
2023/09/27 06:36:05;;;;;;;13.60;9.70;;;18.20;99.90;;;;;;4996470;28;20045;-74
2023/09/27 06:38:31;;;;;;;14.45;10.90;;;18.20;99.90;;;;;;4996616;28;20030;-71
2023/09/27 06:40:57;;;;;;;11.43;8.57;;;18.20;99.90;;;;;;4996695;28;20441;-71
2023/09/27 06:43:24;;;;;;;13.90;9.75;;;18.30;99.90;;;;;;4996697;28;20473;-69
2023/09/27 06:45:49;;;;;;;17.83;10.30;;;18.30;99.90;;;;;;4996780;28;20018;-70
2023/09/27 06:48:18;;;;;;;13.65;9.82;;;18.30;99.90;;;;;;4996750;28;20057;-71
2023/09/27 06:50:43;;;;;;;14.60;9.70;;;18.30;99.90;;;;;;4996815;28;20026;-68
2023/09/27 06:53:09;;;;;;;12.20;8.73;;;18.30;99.90;;;;;;4996200;28;20092;-67
2023/09/27 06:55:35;;;;;;;12.23;8.65;;;18.30;99.90;;;;;;4996639;28;20027;-71
2023/09/27 06:58:00;;;;;;;10.20;8.98;;;18.30;99.90;;;;;;4996540;28;20492;-68
2023/09/27 07:00:26;;;;;;;11.40;9.38;;;18.40;99.90;;;;;;4996323;28;20361;-67
2023/09/27 07:02:52;;;;;;;13.40;9.05;;;18.40;99.90;;;;;;5011469;28;20117;-68
2023/09/27 07:05:21;;;;;;;14.68;9.30;;;18.40;99.90;;;;;;4996229;28;20550;-69
2023/09/27 07:07:54;;;;;;;14.05;9.82;;;18.40;99.90;;;;;;4996053;28;20038;-68
2023/09/27 07:10:21;;;;;;;13.50;9.02;;;18.50;99.90;;;;;;4996329;28;20041;-74
2023/09/27 07:12:46;;;;;;;13.52;9.70;;;18.50;99.90;;;;;;4995924;28;20113;-74
2023/09/27 07:15:13;;;;;;;13.68;8.90;;;18.50;99.90;;;;;;4995270;28;20503;-68
2023/09/27 07:17:40;;;;;;;20.58;10.00;;;18.50;99.90;;;;;;4996053;28;20038;-68
2023/09/27 07:20:23;;;;;;;14.40;9.32;;;18.50;99.90;;;;;;4996111;28;20019;-73
2023/09/27 07:22:48;;;;;;;;;;;18.50;99.90;;;;;;5011191;28;20072;-74
2023/09/27 07:25:18;;;;;;;17.60;9.05;;;18.60;99.90;;;;;;4995888;28;20363;-69
2023/09/27 07:27:43;;;;;;;12.88;9.02;;;18.60;99.90;;;;;;4995934;28;20026;-69
2023/09/27 07:30:11;;;;;;;13.77;9.32;;;18.60;99.90;;;;;;4995980;28;20049;-67
2023/09/27 07:32:39;;;;;;;12.65;8.85;;;18.60;99.90;;;;;;4995723;28;20464;-67
2023/09/27 07:35:11;;;;;;;10.45;9.05;;;18.60;99.90;;;;;;4996198;28;20488;-73
2023/09/27 07:37:37;;;;;;;9.82;8.82;;;18.60;99.90;;;;;;4995497;28;20022;-72
2023/09/27 07:40:09;;;;;;;10.98;8.20;;;18.60;99.90;;;;;;4995721;28;20035;-67
2023/09/27 07:42:35;;;;;;;9.90;9.00;;;18.70;99.90;;;;;;4995823;28;20027;-67
2023/09/27 07:45:02;;;;;;;12.82;9.35;;;18.70;99.90;;;;;;4995731;28;20026;-68
2023/09/27 07:47:27;;;;;;;14.75;9.60;;;18.70;99.90;;;;;;4995376;28;20491;-67
2023/09/27 07:49:54;;;;;;;14.95;9.52;;;18.80;99.90;;;;;;4995714;28;20032;-67
2023/09/27 07:52:19;;;;;;;11.95;9.75;;;18.80;99.90;;;;;;4994903;28;20117;-68
2023/09/27 07:54:46;;;;;;;12.80;10.00;;;18.80;99.90;;;;;;4995548;28;20101;-67
2023/09/27 07:57:12;;;;;;;14.73;9.73;;;18.80;99.90;;;;;;4995415;28;20014;-68
2023/09/27 07:59:37;;;;;;;11.98;9.63;;;18.80;99.90;;;;;;4995591;28;20085;-68
2023/09/27 08:02:03;;;;;;;14.32;10.07;;;18.80;99.90;;;;;;4995238;28;20022;-67
2023/09/27 08:04:29;;;;;;;11.63;9.43;;;18.80;99.90;;;;;;4995140;28;20455;-67
2023/09/27 08:06:54;;;;;;;13.25;10.70;;;18.90;99.90;;;;;;4994770;28;20096;-67
2023/09/27 08:09:24;;;;;;;15.07;9.95;;;18.90;99.90;;;;;;4995532;28;20029;-67
2023/09/27 08:11:50;;;;;;;13.25;9.65;;;18.90;99.90;;;;;;4995113;28;20033;-68
2023/09/27 08:14:18;;;;;;;15.32;10.27;;;18.90;99.90;;;;;;4994936;28;20038;-74
2023/09/27 08:16:44;;;;;;;15.57;10.48;;;18.90;99.90;;;;;;4995063;28;20025;-67
2023/09/27 08:19:09;;;;;;;15.20;10.23;;;19.00;99.90;;;;;;4994950;28;20031;-67
2023/09/27 08:21:35;;;;;;;15.73;11.82;;;19.00;99.90;;;;;;4994655;28;20068;-68
2023/09/27 08:24:00;;;;;;;14.52;10.25;;;19.00;99.90;;;;;;4994950;28;20026;-67
2023/09/27 08:26:27;;;;;;;13.48;10.93;;;19.00;99.90;;;;;;4994802;28;20050;-68
2023/09/27 08:28:52;;;;;;;15.52;11.50;;;19.00;99.90;;;;;;4994580;28;20472;-68
2023/09/27 08:31:18;;;;;;;16.63;11.18;;;19.00;99.90;;;;;;4994775;28;20030;-67
2023/09/27 08:33:44;;;;;;;14.23;10.77;;;19.00;99.90;;;;;;4994620;28;20093;-68
2023/09/27 08:36:09;;;;;;;20.05;12.05;;;19.00;99.90;;;;;;4994303;28;20475;-67
2023/09/27 08:38:35;;;;;;;17.85;11.73;;;19.00;99.90;;;;;;4994384;28;20030;-68
2023/09/27 08:41:01;;;;;;;14.57;11.32;;;19.00;99.90;;;;;;4994586;28;20365;-68
2023/09/27 08:43:29;;;;;;;13.65;10.73;;;19.00;99.90;;;;;;4994298;28;20467;-67
2023/09/27 08:45:56;;;;;;;13.13;10.18;;;19.00;99.90;;;;;;4994491;28;20427;-67
2023/09/27 08:48:24;;;;;;;16.67;11.80;;;19.10;99.90;;;;;;4994295;28;20046;-69
2023/09/27 08:50:50;;;;;;;14.52;11.38;;;19.10;99.90;;;;;;4994179;28;20018;-68
2023/09/27 08:53:16;;;;;;;19.33;11.70;;;19.10;99.90;;;;;;4994262;28;20471;-67
2023/09/27 08:55:50;;;;;;;13.10;11.02;;;19.10;99.90;;;;;;4994310;28;20046;-69
2023/09/27 08:58:15;;;;;;;15.65;11.35;;;19.20;99.90;;;;;;4994335;28;20026;-72
2023/09/27 09:00:42;;;;;;;14.70;11.57;;;19.20;99.90;;;;;;4994127;28;20057;-72
2023/09/27 09:03:08;;;;;;;14.93;12.55;;;19.20;99.90;;;;;;4993782;28;20427;-68
2023/09/27 09:05:35;;;;;;;23.38;13.13;;;19.20;99.90;;;;;;4993964;28;20590;-68
2023/09/27 09:08:04;;;;;;;16.70;13.48;;;19.30;99.90;;;;;;4994123;28;20396;-67
2023/09/27 09:10:29;;;;;;;14.35;12.82;;;19.30;99.90;;;;;;4994194;28;20022;-68
2023/09/27 09:12:55;;;;;;;15.13;13.40;;;19.20;99.90;;;;;;4994049;28;20064;-68
2023/09/27 09:15:41;;;;;;;16.30;13.57;;;19.30;99.90;;;;;;4994017;28;20446;-67
2023/09/27 09:18:12;;;;;;;15.40;12.57;;;19.30;99.90;;;;;;4993965;28;20046;-67
2023/09/27 09:20:54;;;;;;;13.60;11.98;;;19.30;99.90;;;;;;4993847;28;20049;-67
2023/09/27 09:23:34;;;;;;;15.95;12.38;;;19.40;99.90;;;;;;4993854;28;20037;-68
2023/09/27 09:26:12;;;;;;;15.73;11.88;;;19.40;99.90;;;;;;4993870;28;20034;-68
2023/09/27 09:28:59;;;;;;;14.95;12.45;;;19.40;99.90;;;;;;4993755;28;20388;-67
2023/09/27 09:31:28;;;;;;;17.63;12.40;;;19.40;99.90;;;;;;4993875;28;20042;-67
2023/09/27 09:34:04;;;;;;;14.43;11.38;;;19.40;99.90;;;;;;4993258;28;20042;-67
2023/09/27 09:36:30;;;;;;;16.13;11.25;;;19.40;99.90;;;;;;5003877;28;20029;-67
2023/09/27 09:39:14;;;;;;;13.13;10.85;;;19.50;99.90;;;;;;4996571;28;20040;-68
2023/09/27 09:41:47;;;;;;;13.07;11.77;;;19.50;99.90;;;;;;4997529;28;20018;-67
2023/09/27 09:44:23;;;;;;;13.85;10.40;;;19.50;99.90;;;;;;5008453;28;20431;-73
2023/09/27 09:46:51;;;;;;;13.85;10.27;;;19.50;99.90;;;;;;5012667;28;20029;-67
2023/09/27 09:49:18;;;;;;;16.25;9.55;;;19.60;99.90;;;;;;5013348;28;20076;-74
2023/09/27 09:51:50;;;;;;;10.45;8.25;;;19.60;99.90;;;;;;5013271;28;20025;-69
2023/09/27 09:54:35;;;;;;;;;;;19.60;99.90;;;;;;5013714;28;20032;-68
2023/09/27 09:57:05;;;;;;;19.95;6.70;;;19.60;99.90;;;;;;5013110;28;20359;-67
2023/09/27 09:59:38;;;;;;;21.17;6.85;;;19.60;99.90;;;;;;5013143;28;20028;-67
2023/09/27 10:02:19;;;;;;;22.13;9.05;;;19.60;99.90;;;;;;5011791;28;20026;-67
2023/09/27 10:04:46;;;;;;;9.15;6.13;;;19.70;99.90;;;;;;5012745;28;20101;-67
2023/09/27 10:07:14;;;;;;;12.95;6.95;;;19.70;99.90;;;;;;5007637;28;20034;-73
2023/09/27 10:09:42;;;;;;;12.82;6.63;;;19.70;99.90;;;;;;5011248;28;20471;-67
2023/09/27 10:12:10;;;;;;;9.48;6.05;;;19.70;99.90;;;;;;5012654;28;20054;-67
2023/09/27 10:14:36;;;;;;;12.20;5.90;;;19.80;99.90;;;;;;5012703;28;20034;-67
2023/09/27 10:17:01;;;;;;;10.18;5.80;;;19.80;99.90;;;;;;5012718;28;20025;-74
2023/09/27 10:19:28;;;;;;;11.15;6.05;;;19.80;99.90;;;;;;5013063;28;20022;-72
2023/09/27 10:22:07;;;;;;;9.65;5.28;;;19.80;99.90;;;;;;5012762;28;20043;-67
2023/09/27 10:24:37;;;;;;;12.23;5.78;;;19.90;99.90;;;;;;5012090;28;20847;-67
2023/09/27 10:27:03;;;;;;;8.70;4.47;;;19.90;99.90;;;;;;5005540;28;20026;-68
2023/09/27 10:29:29;;;;;;;7.13;4.32;;;19.80;99.90;;;;;;5002523;28;20383;-68
2023/09/27 10:31:57;;;;;;;11.85;4.38;;;19.90;99.90;;;;;;4994655;28;20037;-67
2023/09/27 10:34:26;;;;;;;8.13;4.10;;;19.90;99.90;;;;;;5005761;28;20045;-67
2023/09/27 10:36:53;;;;;;;9.10;4.15;;;19.90;99.90;;;;;;5009081;28;20026;-66
2023/09/27 10:39:19;;;;;;;10.93;4.88;;;19.90;99.90;;;;;;5007548;28;20025;-67
2023/09/27 10:41:48;;;;;;;8.70;4.22;;;19.90;99.90;;;;;;5011817;28;20189;-67
2023/09/27 10:44:28;;;;;;;7.63;5.20;;;19.90;99.90;;;;;;4998786;28;20518;-67
2023/09/27 10:46:54;;;;;;;7.38;4.88;;;20.00;99.90;;;;;;4994610;28;20056;-67
2023/09/27 10:49:20;;;;;;;10.38;4.57;;;19.90;99.90;;;;;;5002416;28;20072;-67
2023/09/27 10:51:46;;;;;;;10.43;5.63;;;20.00;99.90;;;;;;4997987;28;20471;-67
2023/09/27 10:54:12;;;;;;;8.13;4.90;;;20.00;99.90;;;;;;5011554;28;20035;-67
2023/09/27 10:56:42;;;;;;;8.20;4.63;;;20.00;99.90;;;;;;4999603;28;20026;-67
2023/09/27 10:59:08;;;;;;;8.27;5.03;;;20.10;99.90;;;;;;4995129;28;20101;-67
2023/09/27 11:01:35;;;;;;;10.75;5.30;;;20.20;99.90;;;;;;4996708;28;20156;-67
2023/09/27 11:04:02;;;;;;;9.00;4.68;;;20.10;99.90;;;;;;5001556;28;20033;-67
2023/09/27 11:06:29;;;;;;;10.50;4.63;;;20.10;99.90;;;;;;5008595;28;20061;-67
2023/09/27 11:09:08;;;;;;;6.75;4.68;;;20.20;99.90;;;;;;4995303;28;20014;-66
2023/09/27 11:11:34;;;;;;;6.75;4.07;;;20.20;99.90;;;;;;5003413;28;20482;-69
2023/09/27 11:14:00;;;;;;;8.02;4.00;;;20.20;99.90;;;;;;5008817;28;20033;-67
2023/09/27 11:16:26;;;;;;;5.07;3.78;;;20.20;99.90;;;;;;5002540;28;20045;-67
2023/09/27 11:18:52;;;;;;;9.00;4.43;;;20.20;99.90;;;;;;5011509;28;20018;-67
2023/09/27 11:21:19;;;;;;;9.63;4.10;;;20.30;99.90;;;;;;5008179;28;20019;-69
2023/09/27 11:23:52;;;;;;;10.50;3.25;;;20.30;99.90;;;;;;5008440;28;20030;-67
2023/09/27 11:26:19;;;;;;;7.22;3.92;;;20.30;99.90;;;;;;5013096;28;20591;-67
2023/09/27 11:28:46;;;;;;;7.25;3.47;;;20.30;99.90;;;;;;5006990;28;20060;-67
2023/09/27 11:31:22;;;;;;;7.65;3.45;;;20.30;99.90;;;;;;5002892;28;20034;-66
2023/09/27 11:33:48;;;;;;;5.50;3.58;;;20.40;99.90;;;;;;5009963;28;20037;-67
2023/09/27 11:36:14;;;;;;;6.82;3.42;;;20.40;99.90;;;;;;5011538;28;20026;-68
2023/09/27 11:38:46;;;;;;;7.97;3.60;;;20.40;99.90;;;;;;4999828;28;20026;-67
2023/09/27 11:41:14;;;;;;;7.05;3.35;;;20.40;99.90;;;;;;4997181;28;20026;-68
2023/09/27 11:43:40;;;;;;;7.40;3.55;;;20.40;99.90;;;;;;5008881;28;20117;-68
2023/09/27 11:46:06;;;;;;;8.00;3.65;;;20.40;99.90;;;;;;5010136;28;20104;-67
2023/09/27 11:48:33;;;;;;;6.40;3.63;;;20.50;99.90;;;;;;4999219;28;20050;-69
2023/09/27 11:50:59;;;;;;;7.40;3.28;;;20.50;99.90;;;;;;5004545;28;20017;-70
2023/09/27 11:53:25;;;;;;;9.68;3.92;;;20.50;99.90;;;;;;5013384;28;20030;-70
2023/09/27 11:55:50;;;;;;;11.02;3.60;;;20.50;99.90;;;;;;5012923;28;20044;-70
2023/09/27 11:58:16;;;;;;;12.20;4.63;;;20.60;99.90;;;;;;5008736;28;20062;-68
2023/09/27 12:00:42;;;;;;;4.28;3.40;;;20.60;99.90;;;;;;5002676;28;20053;-72
2023/09/27 12:03:07;;;;;;;6.03;3.05;;;20.70;99.90;;;;;;5013290;28;20038;-74
2023/09/27 12:05:39;;;;;;;4.82;3.13;;;20.70;99.90;;;;;;5014632;28;20083;-68
2023/09/27 12:08:06;;;;;;;10.70;3.95;;;20.70;99.90;;;;;;4992453;28;20041;-68
2023/09/27 12:10:32;;;;;;;7.70;3.10;;;20.70;99.90;;;;;;5002981;28;20045;-68
2023/09/27 12:12:58;;;;;;;5.22;2.60;;;20.70;99.90;;;;;;5005812;28;20041;-69
2023/09/27 12:15:25;;;;;;;5.07;2.90;;;20.80;99.90;;;;;;5011707;28;20073;-69
2023/09/27 12:17:51;;;;;;;5.25;2.75;;;20.80;99.90;;;;;;5008008;28;20103;-68
2023/09/27 12:20:17;;;;;;;4.07;2.92;;;20.80;99.90;;;;;;5010068;28;20040;-68
2023/09/27 12:22:43;;;;;;;7.57;2.65;;;20.80;99.90;;;;;;5012998;28;20022;-73
2023/09/27 12:25:09;;;;;;;4.03;2.88;;;20.80;99.90;;;;;;5012941;28;20041;-74
2023/09/27 12:27:34;;;;;;;5.70;2.90;;;20.90;99.90;;;;;;5012226;28;20084;-68
2023/09/27 12:30:00;;;;;;;4.50;2.58;;;20.90;99.90;;;;;;5012578;28;20022;-69
2023/09/27 12:32:26;;;;;;;5.60;2.60;;;20.90;99.90;;;;;;4997992;28;20086;-67
2023/09/27 12:34:52;;;;;;;6.35;2.55;;;20.90;99.90;;;;;;4997452;28;20041;-71
2023/09/27 12:37:18;;;;;;;4.97;3.17;;;20.90;99.90;;;;;;5002959;28;20041;-72
2023/09/27 12:39:44;;;;;;;4.03;2.50;;;21.00;99.90;;;;;;4993582;28;20026;-69